Ever Ultra — 3FEJ6 — position and weather

sailwx.info

Track history (hours):
 
Tides and Currents Weather Stations Pressure Air Temp Water Temp Dewpoint Dewpoint Depression Visibility Wind Speed Wind Dir Waves Ship Positions

Ever Ultra

Last reported at 2017-Dec-07 21:28 UTC. Time now 2017-Dec-13 20:53 UTC.
Position N 48°31' W 129°54'.

Type: Ship (hazmat cat D). MMSI: 356349000.

Date/timePositionNaut miles runAvg speedWind from/ knotsBaromVisibWave heightAir tempDewpointWater temp
2017-Dec-07 21:28N 48°31' W 129°54'1420.7
2017-Dec-07 20:48N 48°31' W 129°32'620.7
2017-Dec-07 20:30N 48°30' W 129°23'1120.6
2017-Dec-07 19:59N 48°30' W 129°07'1020.4
2017-Dec-07 19:30N 48°30' W 128°52'1020.8
2017-Dec-07 19:01N 48°30' W 128°37'1120.8
2017-Dec-07 18:29N 48°30' W 128°20'2420.6
2017-Dec-07 17:20N 48°30' W 127°44'1120.9
2017-Dec-07 16:50N 48°30' W 127°28'720.9
2017-Dec-07 16:30N 48°30' W 127°18'1020.9
2017-Dec-07 16:00N 48°30' W 127°03'1121.0
2017-Dec-07 15:30N 48°30' W 126°46'1021.1
2017-Dec-07 15:00N 48°30' W 126°31'1121.2
2017-Dec-07 14:31N 48°31' W 126°15'1121.2
2017-Dec-07 14:00N 48°31' W 125°59'1120.8
2017-Dec-07 13:28N 48°32' W 125°42'1020.8
2017-Dec-07 13:00N 48°32' W 125°27'1020.8
2017-Dec-07 12:30N 48°32' W 125°12'1020.0
2017-Dec-07 12:00N 48°31' W 124°57'1019.2
2017-Dec-07 11:31N 48°30' W 124°42'917.9
2017-Dec-07 11:00N 48°27' W 124°30'815.9
2017-Dec-07 10:31N 48°24' W 124°19'612.2
2017-Dec-07 10:00N 48°21' W 124°10'4 8.6
2017-Dec-07 09:30N 48°20' W 124°04'714.3
2017-Dec-07 09:00N 48°17' W 123°54'815.6
2017-Dec-07 08:30N 48°16' W 123°43'816.0
2017-Dec-07 08:00N 48°16' W 123°30'714.2
2017-Dec-07 07:30N 48°22' W 123°25'510.5
2017-Dec-07 07:01N 48°23' W 123°17'815.4
2017-Dec-07 06:31N 48°30' W 123°12'1122.3
2017-Dec-07 06:00N 48°41' W 123°16'1020.8
2017-Dec-07 05:31N 48°47' W 123°02'917.6
2017-Dec-07 05:01N 48°54' W 123°09'1020.8
2017-Dec-07 04:30N 49°01' W 123°21'918.4
2017-Dec-07 04:01N 49°10' W 123°23'816.9
2017-Dec-07 03:31N 49°18' W 123°18'713.2
2017-Dec-07 03:00N 49°19' W 123°08'2 4.9
2017-Dec-07 02:30N 49°18' W 123°05'0 0.7
2017-Dec-07 02:00N 49°17' W 123°05'0 0.0
2017-Dec-07 01:30N 49°17' W 123°05'0 0.0
2017-Dec-07 01:00N 49°17' W 123°05'0 0.0
2017-Dec-07 00:30N 49°17' W 123°05'0 0.0
2017-Dec-07 00:00N 49°17' W 123°05'0 0.0
2017-Dec-06 23:30N 49°17' W 123°05'0 0.0
2017-Dec-06 23:00N 49°17' W 123°05'0 0.0
2017-Dec-06 22:30N 49°17' W 123°05'0 0.0
2017-Dec-06 22:00N 49°17' W 123°05'0 0.0
2017-Dec-06 21:30N 49°17' W 123°05'0 0.0
2017-Dec-06 21:00N 49°17' W 123°05'  
2017-Dec-04 10:03N 47°15' W 122°23'0 0.0
2017-Dec-04 09:57N 47°15' W 122°23'0 0.0
2017-Dec-04 09:30N 47°15' W 122°23'0 0.0
2017-Dec-04 02:30N 47°15' W 122°23'0 0.0
2017-Dec-04 01:54N 47°15' W 122°23'0 0.0
2017-Dec-04 01:24N 47°15' W 122°23'0 0.0
2017-Dec-03 23:25N 47°15' W 122°23'1 1.3
2017-Dec-03 23:00N 47°16' W 122°23'2 3.1
2017-Dec-03 22:30N 47°17' W 122°25'2 4.7
2017-Dec-03 22:00N 47°18' W 122°27'4 7.9
2017-Dec-03 21:31N 47°22' W 122°24'714.1
2017-Dec-03 21:00N 47°29' W 122°25'917.7
2017-Dec-03 20:31N 47°37' W 122°28'917.7
2017-Dec-03 20:01N 47°46' W 122°27'918.8
2017-Dec-03 19:31N 47°55' W 122°30'1219.0
2017-Dec-03 18:52N 48°05' W 122°40'719.2
2017-Dec-03 18:31N 48°10' W 122°47'1019.2
2017-Dec-03 17:59N 48°12' W 123°02'816.9
2017-Dec-03 17:30N 48°11' W 123°14'611.4
2017-Dec-03 17:00N 48°10' W 123°23'2 4.2
2017-Dec-03 16:30N 48°11' W 123°25'510.0
2017-Dec-03 16:00N 48°13' W 123°32'714.8
2017-Dec-03 15:30N 48°13' W 123°43'816.3
2017-Dec-03 15:00N 48°14' W 123°55'816.9
2017-Dec-03 14:30N 48°17' W 124°07'816.9
2017-Dec-03 14:00N 48°20' W 124°18'816.9
2017-Dec-03 13:30N 48°24' W 124°30'917.4
2017-Dec-03 13:00N 48°28' W 124°42'916.7
2017-Dec-03 12:29N 48°28' W 124°55'816.4
2017-Dec-03 12:00N 48°28' W 125°07'816.9
2017-Dec-03 11:30N 48°28' W 125°19'917.0
2017-Dec-03 11:00N 48°28' W 125°32'816.8
2017-Dec-03 10:30N 48°29' W 125°45'916.9
2017-Dec-03 10:00N 48°29' W 125°58'917.2
2017-Dec-03 09:30N 48°29' W 126°10'917.1
2017-Dec-03 09:00N 48°29' W 126°24'816.9
2017-Dec-03 08:30N 48°29' W 126°36'  
Track history (hours):
 
Tides and Currents Weather Stations Pressure Air Temp Water Temp Dewpoint Dewpoint Depression Visibility Wind Speed Wind Dir Waves Ship Positions

Ever Ultra

Last reported at 2017-Dec-07 21:28 UTC. Time now 2017-Dec-13 20:53 UTC.
Position N 48°31' W 129°54'.

Type: Ship (hazmat cat D). MMSI: 356349000.

Date/timePositionNaut miles runAvg speedWind from/ knotsBaromVisibWave heightAir tempDewpointWater temp
2017-Dec-07 21:28N 48°31' W 129°54'1420.7
2017-Dec-07 20:48N 48°31' W 129°32'620.7
2017-Dec-07 20:30N 48°30' W 129°23'1120.6
2017-Dec-07 19:59N 48°30' W 129°07'1020.4
2017-Dec-07 19:30N 48°30' W 128°52'1020.8
2017-Dec-07 19:01N 48°30' W 128°37'1120.8
2017-Dec-07 18:29N 48°30' W 128°20'2420.6
2017-Dec-07 17:20N 48°30' W 127°44'1120.9
2017-Dec-07 16:50N 48°30' W 127°28'720.9
2017-Dec-07 16:30N 48°30' W 127°18'1020.9
2017-Dec-07 16:00N 48°30' W 127°03'1121.0
2017-Dec-07 15:30N 48°30' W 126°46'1021.1
2017-Dec-07 15:00N 48°30' W 126°31'1121.2
2017-Dec-07 14:31N 48°31' W 126°15'1121.2
2017-Dec-07 14:00N 48°31' W 125°59'1120.8
2017-Dec-07 13:28N 48°32' W 125°42'1020.8
2017-Dec-07 13:00N 48°32' W 125°27'1020.8
2017-Dec-07 12:30N 48°32' W 125°12'1020.0
2017-Dec-07 12:00N 48°31' W 124°57'1019.2
2017-Dec-07 11:31N 48°30' W 124°42'917.9
2017-Dec-07 11:00N 48°27' W 124°30'815.9
2017-Dec-07 10:31N 48°24' W 124°19'612.2
2017-Dec-07 10:00N 48°21' W 124°10'4 8.6
2017-Dec-07 09:30N 48°20' W 124°04'714.3
2017-Dec-07 09:00N 48°17' W 123°54'815.6
2017-Dec-07 08:30N 48°16' W 123°43'816.0
2017-Dec-07 08:00N 48°16' W 123°30'714.2
2017-Dec-07 07:30N 48°22' W 123°25'510.5
2017-Dec-07 07:01N 48°23' W 123°17'815.4
2017-Dec-07 06:31N 48°30' W 123°12'1122.3
2017-Dec-07 06:00N 48°41' W 123°16'1020.8
2017-Dec-07 05:31N 48°47' W 123°02'917.6
2017-Dec-07 05:01N 48°54' W 123°09'1020.8
2017-Dec-07 04:30N 49°01' W 123°21'918.4
2017-Dec-07 04:01N 49°10' W 123°23'816.9
2017-Dec-07 03:31N 49°18' W 123°18'713.2
2017-Dec-07 03:00N 49°19' W 123°08'2 4.9
2017-Dec-07 02:30N 49°18' W 123°05'0 0.7
2017-Dec-07 02:00N 49°17' W 123°05'0 0.0
2017-Dec-07 01:30N 49°17' W 123°05'0 0.0
2017-Dec-07 01:00N 49°17' W 123°05'0 0.0
2017-Dec-07 00:30N 49°17' W 123°05'0 0.0
2017-Dec-07 00:00N 49°17' W 123°05'0 0.0
2017-Dec-06 23:30N 49°17' W 123°05'0 0.0
2017-Dec-06 23:00N 49°17' W 123°05'0 0.0
2017-Dec-06 22:30N 49°17' W 123°05'0 0.0
2017-Dec-06 22:00N 49°17' W 123°05'0 0.0
2017-Dec-06 21:30N 49°17' W 123°05'0 0.0
2017-Dec-06 21:00N 49°17' W 123°05'  
2017-Dec-04 10:03N 47°15' W 122°23'0 0.0
2017-Dec-04 09:57N 47°15' W 122°23'0 0.0
2017-Dec-04 09:30N 47°15' W 122°23'0 0.0
2017-Dec-04 02:30N 47°15' W 122°23'0 0.0
2017-Dec-04 01:54N 47°15' W 122°23'0 0.0
2017-Dec-04 01:24N 47°15' W 122°23'0 0.0
2017-Dec-03 23:25N 47°15' W 122°23'1 1.3
2017-Dec-03 23:00N 47°16' W 122°23'2 3.1
2017-Dec-03 22:30N 47°17' W 122°25'2 4.7
2017-Dec-03 22:00N 47°18' W 122°27'4 7.9
2017-Dec-03 21:31N 47°22' W 122°24'714.1
2017-Dec-03 21:00N 47°29' W 122°25'917.7
2017-Dec-03 20:31N 47°37' W 122°28'917.7
2017-Dec-03 20:01N 47°46' W 122°27'918.8
2017-Dec-03 19:31N 47°55' W 122°30'1219.0
2017-Dec-03 18:52N 48°05' W 122°40'719.2
2017-Dec-03 18:31N 48°10' W 122°47'1019.2
2017-Dec-03 17:59N 48°12' W 123°02'816.9
2017-Dec-03 17:30N 48°11' W 123°14'611.4
2017-Dec-03 17:00N 48°10' W 123°23'2 4.2
2017-Dec-03 16:30N 48°11' W 123°25'510.0
2017-Dec-03 16:00N 48°13' W 123°32'714.8
2017-Dec-03 15:30N 48°13' W 123°43'816.3
2017-Dec-03 15:00N 48°14' W 123°55'816.9
2017-Dec-03 14:30N 48°17' W 124°07'816.9
2017-Dec-03 14:00N 48°20' W 124°18'816.9
2017-Dec-03 13:30N 48°24' W 124°30'917.4
2017-Dec-03 13:00N 48°28' W 124°42'916.7
2017-Dec-03 12:29N 48°28' W 124°55'816.4
2017-Dec-03 12:00N 48°28' W 125°07'816.9
2017-Dec-03 11:30N 48°28' W 125°19'917.0
2017-Dec-03 11:00N 48°28' W 125°32'816.8
2017-Dec-03 10:30N 48°29' W 125°45'916.9
2017-Dec-03 10:00N 48°29' W 125°58'917.2
2017-Dec-03 09:30N 48°29' W 126°10'917.1
2017-Dec-03 09:00N 48°29' W 126°24'816.9
2017-Dec-03 08:30N 48°29' W 126°36'  

Dump ship's entire track history